sensor_id;sensor_type;location;lat;lon;timestamp;pressure;altitude;pressure_sealevel;temperature;humidity
35435;BME280;21556;55.782;37.528;2023-05-24T00:01:03;99719.44;;;19.04;100.00
35435;BME280;21556;55.782;37.528;2023-05-24T00:03:32;99723.47;;;19.26;100.00
35435;BME280;21556;55.782;37.528;2023-05-24T00:06:00;99718.16;;;19.26;100.00
35435;BME280;21556;55.782;37.528;2023-05-24T00:08:29;99713.13;;;19.11;100.00
35435;BME280;21556;55.782;37.528;2023-05-24T00:11:02;99721.88;;;19.16;100.00
35435;BME280;21556;55.782;37.528;2023-05-24T00:13:29;99720.22;;;19.09;100.00
35435;BME280;21556;55.782;37.528;2023-05-24T00:15:56;99720.28;;;19.06;100.00
35435;BME280;21556;55.782;37.528;2023-05-24T00:18:25;99713.25;;;19.03;100.00
35435;BME280;21556;55.782;37.528;2023-05-24T00:20:52;99710.31;;;19.17;100.00
35435;BME280;21556;55.782;37.528;2023-05-24T00:23:24;99707.34;;;18.84;100.00
35435;BME280;21556;55.782;37.528;2023-05-24T00:25:50;99714.38;;;18.90;100.00
35435;BME280;21556;55.782;37.528;2023-05-24T00:28:17;99707.94;;;19.02;100.00
35435;BME280;21556;55.782;37.528;2023-05-24T00:30:44;99704.75;;;18.83;100.00
35435;BME280;21556;55.782;37.528;2023-05-24T00:33:11;99715.63;;;18.64;100.00
35435;BME280;21556;55.782;37.528;2023-05-24T00:35:37;99706.47;;;18.85;100.00
35435;BME280;21556;55.782;37.528;2023-05-24T00:38:04;99710.41;;;18.58;100.00
35435;BME280;21556;55.782;37.528;2023-05-24T00:40:31;99695.91;;;18.81;100.00
35435;BME280;21556;55.782;37.528;2023-05-24T00:42:58;99699.28;;;18.90;100.00
35435;BME280;21556;55.782;37.528;2023-05-24T00:45:24;99705.72;;;18.77;100.00
35435;BME280;21556;55.782;37.528;2023-05-24T00:47:53;99682.75;;;18.70;100.00
35435;BME280;21556;55.782;37.528;2023-05-24T00:50:19;99690.91;;;18.61;100.00
35435;BME280;21556;55.782;37.528;2023-05-24T00:52:47;99698.16;;;18.48;100.00
35435;BME280;21556;55.782;37.528;2023-05-24T00:55:15;99699.63;;;18.69;100.00
35435;BME280;21556;55.782;37.528;2023-05-24T00:57:41;99702.28;;;18.70;100.00
35435;BME280;21556;55.782;37.528;2023-05-24T01:00:08;99697.00;;;18.67;100.00
35435;BME280;21556;55.782;37.528;2023-05-24T01:02:36;99691.53;;;18.76;100.00
35435;BME280;21556;55.782;37.528;2023-05-24T01:05:03;99682.47;;;18.90;100.00
35435;BME280;21556;55.782;37.528;2023-05-24T01:08:26;99678.22;;;18.80;100.00
35435;BME280;21556;55.782;37.528;2023-05-24T01:10:44;99674.81;;;18.71;100.00
35435;BME280;21556;55.782;37.528;2023-05-24T01:13:23;99673.03;;;18.72;100.00
35435;BME280;21556;55.782;37.528;2023-05-24T01:16:17;99670.47;;;18.64;100.00
35435;BME280;21556;55.782;37.528;2023-05-24T01:18:51;99673.25;;;18.55;100.00
35435;BME280;21556;55.782;37.528;2023-05-24T01:21:48;99668.22;;;18.40;100.00
35435;BME280;21556;55.782;37.528;2023-05-24T01:27:12;99657.09;;;18.70;100.00
35435;BME280;21556;55.782;37.528;2023-05-24T01:29:40;99658.22;;;18.56;100.00
35435;BME280;21556;55.782;37.528;2023-05-24T01:32:12;99667.13;;;18.51;100.00
35435;BME280;21556;55.782;37.528;2023-05-24T01:34:41;99657.38;;;18.53;100.00
35435;BME280;21556;55.782;37.528;2023-05-24T01:37:10;99661.53;;;18.71;100.00
35435;BME280;21556;55.782;37.528;2023-05-24T01:39:39;99659.06;;;18.58;100.00
35435;BME280;21556;55.782;37.528;2023-05-24T01:45:24;99668.91;;;18.51;100.00
35435;BME280;21556;55.782;37.528;2023-05-24T01:50:54;99656.13;;;18.76;100.00
35435;BME280;21556;55.782;37.528;2023-05-24T01:53:29;99659.28;;;18.44;100.00
35435;BME280;21556;55.782;37.528;2023-05-24T01:55:59;99655.56;;;18.56;100.00
35435;BME280;21556;55.782;37.528;2023-05-24T01:58:27;99657.25;;;18.61;100.00
35435;BME280;21556;55.782;37.528;2023-05-24T02:00:56;99658.41;;;18.97;100.00
35435;BME280;21556;55.782;37.528;2023-05-24T02:03:25;99650.13;;;18.62;100.00
35435;BME280;21556;55.782;37.528;2023-05-24T02:05:57;99659.94;;;18.60;100.00
35435;BME280;21556;55.782;37.528;2023-05-24T02:08:24;99657.44;;;18.49;100.00
35435;BME280;21556;55.782;37.528;2023-05-24T02:10:53;99658.19;;;18.57;100.00
35435;BME280;21556;55.782;37.528;2023-05-24T02:13:20;99644.88;;;18.59;100.00
35435;BME280;21556;55.782;37.528;2023-05-24T02:15:52;99643.88;;;18.66;100.00
35435;BME280;21556;55.782;37.528;2023-05-24T02:18:21;99649.31;;;18.58;100.00
35435;BME280;21556;55.782;37.528;2023-05-24T02:20:50;99655.34;;;18.68;100.00
35435;BME280;21556;55.782;37.528;2023-05-24T02:23:17;99648.53;;;18.53;100.00
35435;BME280;21556;55.782;37.528;2023-05-24T02:25:44;99653.47;;;18.78;100.00
35435;BME280;21556;55.782;37.528;2023-05-24T02:28:13;99653.63;;;18.67;100.00
35435;BME280;21556;55.782;37.528;2023-05-24T02:30:40;99653.78;;;18.55;100.00
35435;BME280;21556;55.782;37.528;2023-05-24T02:33:09;99654.81;;;18.47;100.00
35435;BME280;21556;55.782;37.528;2023-05-24T02:35:37;99651.97;;;18.60;100.00
35435;BME280;21556;55.782;37.528;2023-05-24T02:38:06;99646.47;;;18.69;100.00
35435;BME280;21556;55.782;37.528;2023-05-24T02:40:34;99650.31;;;18.52;100.00
35435;BME280;21556;55.782;37.528;2023-05-24T02:43:00;99655.75;;;18.43;100.00
35435;BME280;21556;55.782;37.528;2023-05-24T02:45:26;99639.31;;;18.75;100.00
35435;BME280;21556;55.782;37.528;2023-05-24T02:47:54;99641.63;;;18.95;100.00
35435;BME280;21556;55.782;37.528;2023-05-24T02:50:21;99639.06;;;18.89;100.00
35435;BME280;21556;55.782;37.528;2023-05-24T02:52:48;99638.25;;;18.84;100.00
35435;BME280;21556;55.782;37.528;2023-05-24T02:55:14;99641.19;;;18.67;100.00
35435;BME280;21556;55.782;37.528;2023-05-24T02:57:43;99632.94;;;18.86;100.00
35435;BME280;21556;55.782;37.528;2023-05-24T03:00:10;99646.13;;;18.92;100.00
35435;BME280;21556;55.782;37.528;2023-05-24T03:02:38;99640.50;;;18.55;100.00
35435;BME280;21556;55.782;37.528;2023-05-24T03:05:07;99642.94;;;18.68;100.00
35435;BME280;21556;55.782;37.528;2023-05-24T03:07:33;99641.44;;;18.53;100.00
35435;BME280;21556;55.782;37.528;2023-05-24T03:10:01;99639.81;;;18.43;100.00
35435;BME280;21556;55.782;37.528;2023-05-24T03:12:29;99642.75;;;18.81;100.00
35435;BME280;21556;55.782;37.528;2023-05-24T03:14:56;99630.66;;;18.63;100.00
35435;BME280;21556;55.782;37.528;2023-05-24T03:17:23;99633.66;;;18.95;100.00
35435;BME280;21556;55.782;37.528;2023-05-24T03:19:49;99628.78;;;18.66;100.00
35435;BME280;21556;55.782;37.528;2023-05-24T03:22:17;99631.09;;;18.89;100.00
35435;BME280;21556;55.782;37.528;2023-05-24T03:24:45;99637.31;;;18.88;100.00
35435;BME280;21556;55.782;37.528;2023-05-24T03:27:13;99629.69;;;18.65;100.00
35435;BME280;21556;55.782;37.528;2023-05-24T03:29:40;99635.38;;;18.45;100.00
35435;BME280;21556;55.782;37.528;2023-05-24T03:32:07;99643.75;;;18.73;100.00
35435;BME280;21556;55.782;37.528;2023-05-24T03:34:33;99641.69;;;18.92;100.00
35435;BME280;21556;55.782;37.528;2023-05-24T03:37:00;99645.41;;;18.81;100.00
35435;BME280;21556;55.782;37.528;2023-05-24T03:39:26;99637.81;;;18.58;100.00
35435;BME280;21556;55.782;37.528;2023-05-24T03:41:57;99631.91;;;18.91;100.00
35435;BME280;21556;55.782;37.528;2023-05-24T03:44:23;99625.88;;;18.83;100.00
35435;BME280;21556;55.782;37.528;2023-05-24T03:46:50;99616.22;;;18.79;100.00
35435;BME280;21556;55.782;37.528;2023-05-24T03:49:17;99615.59;;;19.11;100.00
35435;BME280;21556;55.782;37.528;2023-05-24T03:51:44;99605.06;;;19.07;100.00
35435;BME280;21556;55.782;37.528;2023-05-24T03:54:12;99611.94;;;19.18;100.00
35435;BME280;21556;55.782;37.528;2023-05-24T03:56:44;99612.38;;;19.39;100.00
35435;BME280;21556;55.782;37.528;2023-05-24T03:59:11;99604.31;;;19.43;100.00
35435;BME280;21556;55.782;37.528;2023-05-24T04:01:38;99602.69;;;19.36;100.00
35435;BME280;21556;55.782;37.528;2023-05-24T04:04:04;99605.69;;;19.19;100.00
35435;BME280;21556;55.782;37.528;2023-05-24T04:06:33;99602.97;;;19.22;100.00
35435;BME280;21556;55.782;37.528;2023-05-24T04:09:01;99607.00;;;19.42;100.00
35435;BME280;21556;55.782;37.528;2023-05-24T04:11:32;99607.19;;;19.33;100.00
35435;BME280;21556;55.782;37.528;2023-05-24T04:13:58;99615.13;;;19.34;100.00
35435;BME280;21556;55.782;37.528;2023-05-24T04:16:28;99606.16;;;19.40;100.00
35435;BME280;21556;55.782;37.528;2023-05-24T04:19:00;99609.88;;;19.31;100.00
35435;BME280;21556;55.782;37.528;2023-05-24T04:21:30;99601.34;;;19.15;100.00
35435;BME280;21556;55.782;37.528;2023-05-24T04:23:56;99608.03;;;19.36;100.00
35435;BME280;21556;55.782;37.528;2023-05-24T04:26:26;99602.69;;;19.36;100.00
35435;BME280;21556;55.782;37.528;2023-05-24T04:28:53;99607.88;;;19.42;100.00
35435;BME280;21556;55.782;37.528;2023-05-24T04:31:20;99602.22;;;19.17;100.00
35435;BME280;21556;55.782;37.528;2023-05-24T04:33:47;99607.91;;;18.97;100.00
35435;BME280;21556;55.782;37.528;2023-05-24T04:36:16;99604.13;;;19.09;100.00
35435;BME280;21556;55.782;37.528;2023-05-24T04:38:43;99606.25;;;19.35;100.00
35435;BME280;21556;55.782;37.528;2023-05-24T04:41:13;99598.56;;;19.21;100.00
35435;BME280;21556;55.782;37.528;2023-05-24T04:43:39;99605.69;;;19.19;100.00
35435;BME280;21556;55.782;37.528;2023-05-24T04:46:06;99603.88;;;18.75;100.00
35435;BME280;21556;55.782;37.528;2023-05-24T04:48:32;99609.16;;;19.23;100.00
35435;BME280;21556;55.782;37.528;2023-05-24T04:51:02;99616.16;;;19.29;100.00
35435;BME280;21556;55.782;37.528;2023-05-24T04:53:29;99605.03;;;19.08;100.00
35435;BME280;21556;55.782;37.528;2023-05-24T04:55:56;99606.41;;;19.28;100.00
35435;BME280;21556;55.782;37.528;2023-05-24T04:58:26;99606.22;;;19.37;100.00
35435;BME280;21556;55.782;37.528;2023-05-24T05:01:04;99603.63;;;19.34;100.00
35435;BME280;21556;55.782;37.528;2023-05-24T05:03:37;99592.59;;;19.94;100.00
35435;BME280;21556;55.782;37.528;2023-05-24T05:06:04;99605.66;;;20.05;100.00
35435;BME280;21556;55.782;37.528;2023-05-24T05:08:33;99606.78;;;19.94;100.00
35435;BME280;21556;55.782;37.528;2023-05-24T05:10:59;99610.63;;;20.18;100.00
35435;BME280;21556;55.782;37.528;2023-05-24T05:13:25;99615.03;;;19.82;100.00
35435;BME280;21556;55.782;37.528;2023-05-24T05:15:53;99618.72;;;20.15;100.00
35435;BME280;21556;55.782;37.528;2023-05-24T05:18:22;99617.69;;;20.21;100.00
35435;BME280;21556;55.782;37.528;2023-05-24T05:20:56;99615.81;;;20.62;100.00
35435;BME280;21556;55.782;37.528;2023-05-24T05:23:56;99610.75;;;20.85;100.00
35435;BME280;21556;55.782;37.528;2023-05-24T05:26:22;99617.25;;;20.75;100.00
35435;BME280;21556;55.782;37.528;2023-05-24T05:28:50;99615.50;;;21.07;100.00
35435;BME280;21556;55.782;37.528;2023-05-24T05:31:22;99617.38;;;20.71;100.00
35435;BME280;21556;55.782;37.528;2023-05-24T05:33:48;99611.84;;;21.11;100.00
35435;BME280;21556;55.782;37.528;2023-05-24T05:36:16;99614.88;;;20.97;100.00
35435;BME280;21556;55.782;37.528;2023-05-24T05:38:43;99611.56;;;20.89;100.00
35435;BME280;21556;55.782;37.528;2023-05-24T05:41:09;99612.06;;;21.02;100.00
35435;BME280;21556;55.782;37.528;2023-05-24T05:43:37;99613.41;;;21.18;100.00
35435;BME280;21556;55.782;37.528;2023-05-24T05:46:05;99609.03;;;21.15;100.00
35435;BME280;21556;55.782;37.528;2023-05-24T05:48:32;99608.06;;;21.18;100.00
35435;BME280;21556;55.782;37.528;2023-05-24T05:50:59;99610.75;;;20.85;100.00
35435;BME280;21556;55.782;37.528;2023-05-24T05:53:27;99601.69;;;20.92;100.00
35435;BME280;21556;55.782;37.528;2023-05-24T05:55:54;99597.78;;;21.04;100.00
35435;BME280;21556;55.782;37.528;2023-05-24T05:58:21;99595.34;;;20.97;100.00
35435;BME280;21556;55.782;37.528;2023-05-24T06:00:49;99592.44;;;21.37;100.00
35435;BME280;21556;55.782;37.528;2023-05-24T06:03:16;99598.16;;;21.54;100.00
35435;BME280;21556;55.782;37.528;2023-05-24T06:05:43;99595.53;;;21.53;100.00
35435;BME280;21556;55.782;37.528;2023-05-24T06:08:09;99591.50;;;21.39;100.00
35435;BME280;21556;55.782;37.528;2023-05-24T06:10:36;99588.72;;;21.72;100.00
35435;BME280;21556;55.782;37.528;2023-05-24T06:13:02;99585.22;;;21.70;100.00
35435;BME280;21556;55.782;37.528;2023-05-24T06:15:31;99598.28;;;22.07;100.00
35435;BME280;21556;55.782;37.528;2023-05-24T06:17:59;99593.41;;;21.94;100.00
35435;BME280;21556;55.782;37.528;2023-05-24T06:20:25;99587.28;;;21.90;100.00
35435;BME280;21556;55.782;37.528;2023-05-24T06:22:53;99593.47;;;21.62;100.00
35435;BME280;21556;55.782;37.528;2023-05-24T06:25:20;99592.03;;;21.51;100.00
35435;BME280;21556;55.782;37.528;2023-05-24T06:27:48;99584.16;;;21.15;100.00
35435;BME280;21556;55.782;37.528;2023-05-24T06:30:16;99590.75;;;21.02;100.00
35435;BME280;21556;55.782;37.528;2023-05-24T06:32:43;99581.81;;;21.65;100.00
35435;BME280;21556;55.782;37.528;2023-05-24T06:35:10;99588.91;;;21.36;100.00
35435;BME280;21556;55.782;37.528;2023-05-24T06:37:36;99583.00;;;21.24;100.00
35435;BME280;21556;55.782;37.528;2023-05-24T06:40:06;99589.69;;;21.40;100.00
35435;BME280;21556;55.782;37.528;2023-05-24T06:42:34;99590.56;;;21.41;100.00
35435;BME280;21556;55.782;37.528;2023-05-24T06:45:22;99594.28;;;21.35;100.00
35435;BME280;21556;55.782;37.528;2023-05-24T06:47:57;99583.56;;;21.36;100.00
35435;BME280;21556;55.782;37.528;2023-05-24T06:50:24;99581.84;;;21.63;100.00
35435;BME280;21556;55.782;37.528;2023-05-24T06:52:54;99586.88;;;21.45;100.00
35435;BME280;21556;55.782;37.528;2023-05-24T06:55:21;99592.59;;;21.31;100.00
35435;BME280;21556;55.782;37.528;2023-05-24T06:57:48;99585.88;;;20.85;100.00
35435;BME280;21556;55.782;37.528;2023-05-24T07:00:16;99583.38;;;20.79;100.00
35435;BME280;21556;55.782;37.528;2023-05-24T07:02:42;99590.66;;;21.37;100.00
35435;BME280;21556;55.782;37.528;2023-05-24T07:05:09;99586.09;;;21.41;100.00
35435;BME280;21556;55.782;37.528;2023-05-24T07:07:39;99584.34;;;21.40;100.00
35435;BME280;21556;55.782;37.528;2023-05-24T07:10:06;99577.97;;;21.75;100.00
35435;BME280;21556;55.782;37.528;2023-05-24T07:12:33;99577.06;;;21.75;100.00
35435;BME280;21556;55.782;37.528;2023-05-24T07:14:59;99586.50;;;21.86;100.00
35435;BME280;21556;55.782;37.528;2023-05-24T07:17:32;99582.00;;;21.59;100.00
35435;BME280;21556;55.782;37.528;2023-05-24T07:19:59;99581.00;;;21.91;100.00
35435;BME280;21556;55.782;37.528;2023-05-24T07:22:33;99581.94;;;22.18;100.00
35435;BME280;21556;55.782;37.528;2023-05-24T07:25:03;99576.34;;;22.26;100.00
35435;BME280;21556;55.782;37.528;2023-05-24T07:27:38;99582.16;;;22.10;100.00
35435;BME280;21556;55.782;37.528;2023-05-24T07:30:09;99586.09;;;21.99;100.00
35435;BME280;21556;55.782;37.528;2023-05-24T07:32:38;99589.63;;;22.01;100.00
35435;BME280;21556;55.782;37.528;2023-05-24T07:35:22;99590.06;;;21.85;100.00
35435;BME280;21556;55.782;37.528;2023-05-24T07:39:07;99596.88;;;21.96;100.00
35435;BME280;21556;55.782;37.528;2023-05-24T07:41:45;99593.25;;;21.98;100.00
35435;BME280;21556;55.782;37.528;2023-05-24T07:44:19;99598.25;;;21.81;100.00
35435;BME280;21556;55.782;37.528;2023-05-24T07:47:07;99596.53;;;21.49;100.00
35435;BME280;21556;55.782;37.528;2023-05-24T07:49:34;99595.81;;;21.73;100.00
35435;BME280;21556;55.782;37.528;2023-05-24T07:52:02;99607.00;;;21.86;100.00
35435;BME280;21556;55.782;37.528;2023-05-24T07:54:32;99599.31;;;21.75;100.00
35435;BME280;21556;55.782;37.528;2023-05-24T07:56:58;99604.41;;;21.83;100.00
35435;BME280;21556;55.782;37.528;2023-05-24T07:59:29;99598.31;;;21.78;100.00
35435;BME280;21556;55.782;37.528;2023-05-24T08:02:01;99600.13;;;21.77;100.00
35435;BME280;21556;55.782;37.528;2023-05-24T08:07:02;99609.69;;;21.84;100.00
35435;BME280;21556;55.782;37.528;2023-05-24T08:09:32;99617.78;;;21.83;100.00
35435;BME280;21556;55.782;37.528;2023-05-24T08:12:08;99624.16;;;21.77;100.00
35435;BME280;21556;55.782;37.528;2023-05-24T08:14:43;99613.38;;;21.80;100.00
35435;BME280;21556;55.782;37.528;2023-05-24T08:17:13;99610.38;;;21.91;100.00
35435;BME280;21556;55.782;37.528;2023-05-24T08:20:16;99602.94;;;22.30;100.00
35435;BME280;21556;55.782;37.528;2023-05-24T08:22:43;99609.94;;;22.33;100.00
35435;BME280;21556;55.782;37.528;2023-05-24T08:25:10;99616.00;;;22.11;100.00
35435;BME280;21556;55.782;37.528;2023-05-24T08:27:38;99615.88;;;22.16;100.00
35435;BME280;21556;55.782;37.528;2023-05-24T08:30:05;99608.03;;;22.38;100.00
35435;BME280;21556;55.782;37.528;2023-05-24T08:32:37;99604.28;;;22.69;100.00
35435;BME280;21556;55.782;37.528;2023-05-24T08:35:08;99600.75;;;22.68;100.00
35435;BME280;21556;55.782;37.528;2023-05-24T08:37:45;99605.16;;;22.69;100.00
35435;BME280;21556;55.782;37.528;2023-05-24T08:40:37;99605.16;;;22.44;100.00
35435;BME280;21556;55.782;37.528;2023-05-24T08:43:10;99604.78;;;22.28;100.00
35435;BME280;21556;55.782;37.528;2023-05-24T08:45:42;99608.06;;;22.63;100.00
35435;BME280;21556;55.782;37.528;2023-05-24T08:48:14;99602.56;;;22.68;100.00
35435;BME280;21556;55.782;37.528;2023-05-24T08:50:44;99600.38;;;22.26;100.00
35435;BME280;21556;55.782;37.528;2023-05-24T08:53:13;99615.03;;;22.14;100.00
35435;BME280;21556;55.782;37.528;2023-05-24T08:55:43;99609.81;;;22.09;100.00
35435;BME280;21556;55.782;37.528;2023-05-24T08:58:10;99613.41;;;22.08;100.00
35435;BME280;21556;55.782;37.528;2023-05-24T09:00:40;99613.22;;;22.15;100.00
35435;BME280;21556;55.782;37.528;2023-05-24T09:03:09;99619.47;;;22.15;100.00
35435;BME280;21556;55.782;37.528;2023-05-24T09:05:43;99610.75;;;22.08;100.00
35435;BME280;21556;55.782;37.528;2023-05-24T09:08:14;99608.38;;;22.27;100.00
35435;BME280;21556;55.782;37.528;2023-05-24T09:11:04;99606.78;;;22.48;100.00
35435;BME280;21556;55.782;37.528;2023-05-24T09:14:04;99604.97;;;22.75;100.00
35435;BME280;21556;55.782;37.528;2023-05-24T09:16:37;99602.69;;;22.90;100.00
35435;BME280;21556;55.782;37.528;2023-05-24T09:19:04;99597.63;;;23.07;100.00
35435;BME280;21556;55.782;37.528;2023-05-24T09:21:31;99598.69;;;22.76;100.00
35435;BME280;21556;55.782;37.528;2023-05-24T09:23:58;99602.16;;;23.05;100.00
35435;BME280;21556;55.782;37.528;2023-05-24T09:26:27;99606.06;;;22.96;100.00
35435;BME280;21556;55.782;37.528;2023-05-24T09:28:58;99605.78;;;23.27;100.00
35435;BME280;21556;55.782;37.528;2023-05-24T09:31:32;99613.72;;;23.30;100.00
35435;BME280;21556;55.782;37.528;2023-05-24T09:33:58;99611.56;;;22.92;100.00
35435;BME280;21556;55.782;37.528;2023-05-24T09:36:26;99609.44;;;22.75;100.00
35435;BME280;21556;55.782;37.528;2023-05-24T09:39:08;99617.44;;;23.01;100.00
35435;BME280;21556;55.782;37.528;2023-05-24T09:41:38;99607.44;;;23.32;100.00
35435;BME280;21556;55.782;37.528;2023-05-24T09:44:12;99604.38;;;23.66;100.00
35435;BME280;21556;55.782;37.528;2023-05-24T09:46:40;99612.72;;;23.57;100.00
35435;BME280;21556;55.782;37.528;2023-05-24T09:49:07;99612.00;;;23.53;100.00
35435;BME280;21556;55.782;37.528;2023-05-24T09:51:38;99607.00;;;22.95;100.00
35435;BME280;21556;55.782;37.528;2023-05-24T09:54:07;99614.31;;;23.62;100.00
35435;BME280;21556;55.782;37.528;2023-05-24T09:56:34;99605.47;;;24.51;100.00
35435;BME280;21556;55.782;37.528;2023-05-24T09:59:08;99613.53;;;24.71;100.00
35435;BME280;21556;55.782;37.528;2023-05-24T10:01:34;99613.50;;;25.14;100.00
35435;BME280;21556;55.782;37.528;2023-05-24T10:04:00;99611.38;;;24.80;100.00
35435;BME280;21556;55.782;37.528;2023-05-24T10:06:28;99611.28;;;24.61;100.00
35435;BME280;21556;55.782;37.528;2023-05-24T10:09:00;99609.09;;;24.91;100.00
35435;BME280;21556;55.782;37.528;2023-05-24T10:11:27;99611.56;;;25.17;100.00
35435;BME280;21556;55.782;37.528;2023-05-24T10:14:19;99621.44;;;24.74;100.00
35435;BME280;21556;55.782;37.528;2023-05-24T10:16:49;99618.25;;;24.44;100.00
35435;BME280;21556;55.782;37.528;2023-05-24T10:19:15;99617.06;;;24.52;100.00
35435;BME280;21556;55.782;37.528;2023-05-24T10:21:41;99614.19;;;24.34;100.00
35435;BME280;21556;55.782;37.528;2023-05-24T10:24:08;99617.59;;;24.38;100.00
35435;BME280;21556;55.782;37.528;2023-05-24T10:26:36;99628.31;;;24.38;100.00
35435;BME280;21556;55.782;37.528;2023-05-24T10:29:06;99620.91;;;24.87;100.00
35435;BME280;21556;55.782;37.528;2023-05-24T10:31:38;99628.16;;;24.42;100.00
35435;BME280;21556;55.782;37.528;2023-05-24T10:34:05;99627.91;;;24.26;100.00
35435;BME280;21556;55.782;37.528;2023-05-24T10:36:36;99639.66;;;23.77;100.00
35435;BME280;21556;55.782;37.528;2023-05-24T10:39:07;99645.56;;;23.87;100.00
35435;BME280;21556;55.782;37.528;2023-05-24T10:41:40;99639.94;;;23.93;100.00
35435;BME280;21556;55.782;37.528;2023-05-24T10:44:18;99642.91;;;23.62;100.00
35435;BME280;21556;55.782;37.528;2023-05-24T10:49:37;99633.56;;;23.48;100.00
35435;BME280;21556;55.782;37.528;2023-05-24T10:52:08;99636.69;;;23.61;100.00
35435;BME280;21556;55.782;37.528;2023-05-24T10:54:34;99637.16;;;23.24;100.00
35435;BME280;21556;55.782;37.528;2023-05-24T10:57:03;99628.53;;;23.64;100.00
35435;BME280;21556;55.782;37.528;2023-05-24T10:59:33;99630.53;;;23.83;100.00
35435;BME280;21556;55.782;37.528;2023-05-24T11:02:08;99632.38;;;23.81;100.00
35435;BME280;21556;55.782;37.528;2023-05-24T11:04:46;99651.25;;;23.77;100.00
35435;BME280;21556;55.782;37.528;2023-05-24T11:07:14;99637.59;;;23.60;100.00
35435;BME280;21556;55.782;37.528;2023-05-24T11:09:42;99641.50;;;23.51;100.00
35435;BME280;21556;55.782;37.528;2023-05-24T11:12:18;99646.59;;;23.34;100.00
35435;BME280;21556;55.782;37.528;2023-05-24T11:14:50;99646.56;;;23.36;100.00
35435;BME280;21556;55.782;37.528;2023-05-24T11:17:21;99639.50;;;23.57;100.00
35435;BME280;21556;55.782;37.528;2023-05-24T11:19:51;99652.06;;;23.31;100.00
35435;BME280;21556;55.782;37.528;2023-05-24T11:22:22;99650.88;;;23.40;100.00
35435;BME280;21556;55.782;37.528;2023-05-24T11:24:49;99655.94;;;23.47;100.00
35435;BME280;21556;55.782;37.528;2023-05-24T11:27:16;99653.94;;;23.52;100.00
35435;BME280;21556;55.782;37.528;2023-05-24T11:29:43;99653.91;;;23.54;100.00
35435;BME280;21556;55.782;37.528;2023-05-24T11:32:15;99653.78;;;23.57;100.00
35435;BME280;21556;55.782;37.528;2023-05-24T11:34:41;99658.97;;;23.62;100.00
35435;BME280;21556;55.782;37.528;2023-05-24T11:37:10;99657.84;;;23.69;100.00
35435;BME280;21556;55.782;37.528;2023-05-24T11:39:36;99648.84;;;23.71;100.00
35435;BME280;21556;55.782;37.528;2023-05-24T11:42:05;99654.22;;;23.70;100.00
35435;BME280;21556;55.782;37.528;2023-05-24T11:44:34;99653.63;;;23.85;100.00
35435;BME280;21556;55.782;37.528;2023-05-24T11:47:05;99648.28;;;23.85;100.00
35435;BME280;21556;55.782;37.528;2023-05-24T11:49:31;99660.34;;;23.73;100.00
35435;BME280;21556;55.782;37.528;2023-05-24T11:52:00;99662.56;;;23.86;100.00
35435;BME280;21556;55.782;37.528;2023-05-24T11:54:28;99656.50;;;23.81;100.00
35435;BME280;21556;55.782;37.528;2023-05-24T11:56:59;99650.19;;;23.82;100.00
35435;BME280;21556;55.782;37.528;2023-05-24T11:59:28;99649.63;;;23.97;100.00
35435;BME280;21556;55.782;37.528;2023-05-24T12:02:02;99653.03;;;23.78;100.00
35435;BME280;21556;55.782;37.528;2023-05-24T12:04:31;99648.03;;;23.91;100.00
35435;BME280;21556;55.782;37.528;2023-05-24T12:07:09;99648.56;;;23.77;100.00
35435;BME280;21556;55.782;37.528;2023-05-24T12:09:39;99652.41;;;23.94;100.00
35435;BME280;21556;55.782;37.528;2023-05-24T12:12:07;99642.84;;;24.10;100.00
35435;BME280;21556;55.782;37.528;2023-05-24T12:14:34;99644.22;;;24.20;100.00
35435;BME280;21556;55.782;37.528;2023-05-24T12:17:01;99636.00;;;24.47;100.00
35435;BME280;21556;55.782;37.528;2023-05-24T12:19:33;99640.19;;;23.87;100.00
35435;BME280;21556;55.782;37.528;2023-05-24T12:22:04;99641.34;;;24.25;100.00
35435;BME280;21556;55.782;37.528;2023-05-24T12:24:37;99635.50;;;24.15;100.00
35435;BME280;21556;55.782;37.528;2023-05-24T12:27:03;99636.94;;;24.24;100.00
35435;BME280;21556;55.782;37.528;2023-05-24T12:29:37;99628.06;;;24.22;100.00
35435;BME280;21556;55.782;37.528;2023-05-24T12:32:11;99634.44;;;24.19;100.00
35435;BME280;21556;55.782;37.528;2023-05-24T12:34:41;99632.56;;;24.21;100.00
35435;BME280;21556;55.782;37.528;2023-05-24T12:37:08;99628.66;;;24.30;100.00
35435;BME280;21556;55.782;37.528;2023-05-24T12:39:36;99624.72;;;24.17;100.00
35435;BME280;21556;55.782;37.528;2023-05-24T12:42:05;99623.00;;;24.14;100.00
35435;BME280;21556;55.782;37.528;2023-05-24T12:44:37;99627.34;;;24.18;100.00
35435;BME280;21556;55.782;37.528;2023-05-24T12:47:07;99615.41;;;24.25;100.00
35435;BME280;21556;55.782;37.528;2023-05-24T12:49:41;99615.03;;;24.13;100.00
35435;BME280;21556;55.782;37.528;2023-05-24T12:52:10;99618.16;;;24.02;100.00
35435;BME280;21556;55.782;37.528;2023-05-24T12:54:37;99616.97;;;24.09;100.00
35435;BME280;21556;55.782;37.528;2023-05-24T12:57:04;99614.91;;;23.94;100.00
35435;BME280;21556;55.782;37.528;2023-05-24T12:59:30;99622.88;;;24.17;100.00
35435;BME280;21556;55.782;37.528;2023-05-24T13:01:56;99622.44;;;24.06;100.00
35435;BME280;21556;55.782;37.528;2023-05-24T13:04:23;99622.25;;;23.89;100.00
35435;BME280;21556;55.782;37.528;2023-05-24T13:06:51;99622.84;;;23.73;100.00
35435;BME280;21556;55.782;37.528;2023-05-24T13:09:20;99627.28;;;23.96;100.00